This is the latest recevied weather packets stored in our database for station/object I2HLY-3. If no packets are shown the sender has not sent any weather packets the latest 10 day(s).
| Time | Temp. | Humidity | Pressure | Rain* | Wind** | Luminosity | Snow |
|---|---|---|---|---|---|---|---|
| 1777954656 | 13.89° C | 78% | 1010.4 hPa | 0 mm | - | - | - |
| 1777953737 | 13.89° C | 77% | 1010.4 hPa | 0 mm | - | - | - |
| 1777952839 | 13.89° C | 74% | 1010.4 hPa | 0 mm | - | - | - |
| 1777951943 | 14.44° C | 74% | 1010.6 hPa | 0 mm | - | - | - |
| 1777951044 | 14.44° C | 72% | 1010.7 hPa | 0 mm | - | - | - |
| 1777950146 | 15° C | 71% | 1010.9 hPa | 0 mm | - | - | - |
| 1777949251 | 15° C | 70% | 1011 hPa | 0 mm | - | - | - |
| 1777948353 | 15° C | 69% | 1011.1 hPa | 0 mm | - | - | - |
| 1777947455 | 15° C | 70% | 1011.3 hPa | 0 mm | - | - | - |
| 1777946540 | 15° C | 72% | 1011.4 hPa | 0 mm | - | - | - |
| 1777945641 | 14.44° C | 75% | 1011.6 hPa | 0 mm | - | - | - |
| 1777944743 | 13.33° C | 81% | 1011.9 hPa | 0 mm | - | - | - |
| 1777943848 | 12.78° C | 83% | 1012.1 hPa | 0 mm | - | - | - |
| 1777942950 | 12.78° C | 83% | 1012.2 hPa | 0 mm | - | - | - |
| 1777942052 | 12.78° C | 84% | 1012.5 hPa | 0 mm | - | - | - |
| 1777941138 | 12.22° C | 84% | 1012.7 hPa | 0 mm | - | - | - |
| 1777940238 | 12.22° C | 84% | 1012.8 hPa | 0 mm | - | - | - |
| 1777939339 | 12.22° C | 82% | 1013.1 hPa | 0 mm | - | - | - |
| 1777938445 | 12.22° C | 81% | 1013.4 hPa | 0 mm | - | - | - |
| 1777937547 | 12.78° C | 80% | 1013.5 hPa | 0 mm | - | - | - |
| 1777936650 | 12.78° C | 78% | 1013.7 hPa | 0 mm | - | - | - |
| 1777935751 | 13.33° C | 75% | 1013.8 hPa | 0 mm | - | - | - |
| 1777934837 | 13.33° C | 72% | 1013.8 hPa | 0 mm | - | - | - |
| 1777933939 | 13.89° C | 71% | 1013.9 hPa | 0 mm | - | - | - |
| 1777933041 | 14.44° C | 69% | 1014.2 hPa | 0 mm | - | - | - |
* Rain latest hour (hover to see other rain measurements)
** Current wind speed in m/s (hover to see current wind gust speed)